createdAt,value
2018-04-26T00:00:23.931Z,13.81
2018-04-26T00:01:23.944Z,13.76
2018-04-26T00:02:23.946Z,13.76
2018-04-26T00:03:23.949Z,13.79
2018-04-26T00:04:23.968Z,13.79
2018-04-26T00:05:23.973Z,13.79
2018-04-26T00:06:23.979Z,13.76
2018-04-26T00:07:23.986Z,13.81
2018-04-26T00:08:24.005Z,13.79
2018-04-26T00:09:24.006Z,13.68
2018-04-26T00:10:24.017Z,13.79
2018-04-26T00:11:24.031Z,13.72
2018-04-26T00:12:24.044Z,13.80
2018-04-26T00:13:24.045Z,13.81
2018-04-26T00:14:24.052Z,13.83
2018-04-26T00:15:24.063Z,13.80
2018-04-26T00:16:24.067Z,13.81
2018-04-26T00:17:24.081Z,13.81
2018-04-26T00:18:24.090Z,13.80
2018-04-26T00:19:24.095Z,13.81
2018-04-26T00:20:24.110Z,13.80
2018-04-26T00:21:24.115Z,13.71
2018-04-26T00:22:24.132Z,13.79
2018-04-26T00:23:24.155Z,13.75
2018-04-26T00:24:24.148Z,13.76
2018-04-26T00:25:24.156Z,13.69
2018-04-26T00:26:24.170Z,13.80
2018-04-26T00:27:24.168Z,13.90
2018-04-26T00:28:24.184Z,13.93
2018-04-26T00:29:24.193Z,13.98
2018-04-26T00:30:24.198Z,13.98
2018-04-26T00:31:24.207Z,13.98
2018-04-26T00:32:24.213Z,14.01
2018-04-26T00:33:24.224Z,13.94
2018-04-26T00:34:24.246Z,13.96
2018-04-26T00:35:24.249Z,14.02
2018-04-26T00:36:24.250Z,13.98
2018-04-26T00:37:24.276Z,13.99
2018-04-26T00:38:24.265Z,13.99
2018-04-26T00:39:24.280Z,13.99
2018-04-26T00:40:24.287Z,13.94
2018-04-26T00:41:24.294Z,13.99
2018-04-26T00:42:24.320Z,14.08
2018-04-26T00:43:24.312Z,14.06
2018-04-26T00:44:24.467Z,14.05
2018-04-26T00:45:24.430Z,14.11
2018-04-26T00:46:24.339Z,14.05
2018-04-26T00:47:24.355Z,14.05
2018-04-26T00:48:24.365Z,14.08
2018-04-26T00:49:24.370Z,14.06
2018-04-26T00:50:24.380Z,14.08
2018-04-26T00:51:24.391Z,14.23
2018-04-26T00:52:24.397Z,14.17
2018-04-26T00:53:24.401Z,14.17
2018-04-26T00:54:24.410Z,14.08
2018-04-26T00:55:24.424Z,14.08
2018-04-26T00:56:24.444Z,14.02
2018-04-26T00:57:24.448Z,14.01
2018-04-26T00:58:24.450Z,14.01
2018-04-26T00:59:24.466Z,13.98
2018-04-26T01:00:24.473Z,13.93
2018-04-26T01:01:24.478Z,14.01
2018-04-26T01:02:24.488Z,13.88
2018-04-26T01:03:24.492Z,13.96
2018-04-26T01:04:24.508Z,14.01
2018-04-26T01:05:24.513Z,13.90
2018-04-26T01:06:24.526Z,13.99
2018-04-26T01:07:24.662Z,14.04
2018-04-26T01:08:24.551Z,14.04
2018-04-26T01:09:24.567Z,13.98
2018-04-26T01:10:24.570Z,14.01
2018-04-26T01:11:24.574Z,14.01
2018-04-26T01:12:24.582Z,13.99
2018-04-26T01:13:24.601Z,13.99
2018-04-26T01:14:24.598Z,14.01
2018-04-26T01:15:24.610Z,13.99
2018-04-26T01:16:24.613Z,14.02
2018-04-26T01:17:24.628Z,13.99
2018-04-26T01:18:24.632Z,13.99
2018-04-26T01:19:24.643Z,13.99
2018-04-26T01:20:24.650Z,13.99
2018-04-26T01:21:24.657Z,13.96
2018-04-26T01:22:24.680Z,14.02
2018-04-26T01:23:24.683Z,13.91
2018-04-26T01:24:24.690Z,13.93
2018-04-26T01:25:24.700Z,13.91
2018-04-26T01:26:24.709Z,13.90
2018-04-26T01:27:24.710Z,13.96
2018-04-26T01:28:24.722Z,13.96
2018-04-26T01:29:24.732Z,14.01
2018-04-26T01:30:24.738Z,13.96
2018-04-26T01:31:24.753Z,13.99
2018-04-26T01:32:24.761Z,13.98
2018-04-26T01:33:24.764Z,14.02
2018-04-26T01:34:24.778Z,13.91
2018-04-26T01:35:24.790Z,13.99
2018-04-26T01:36:24.797Z,14.04
2018-04-26T01:37:24.803Z,13.94
2018-04-26T01:38:24.816Z,14.01
2018-04-26T01:39:24.823Z,13.99
2018-04-26T01:40:24.845Z,14.01
2018-04-26T01:41:24.837Z,14.04
2018-04-26T01:42:24.848Z,13.99
2018-04-26T01:43:24.856Z,13.90
2018-04-26T01:44:24.871Z,13.90
2018-04-26T01:45:24.877Z,13.87
2018-04-26T01:46:24.883Z,13.96
2018-04-26T01:47:24.903Z,13.93
2018-04-26T01:48:24.902Z,13.80
2018-04-26T01:49:24.914Z,13.76
2018-04-26T01:50:24.917Z,13.87
2018-04-26T01:51:24.927Z,13.83
2018-04-26T01:52:24.940Z,13.84
2018-04-26T01:53:24.944Z,13.83
2018-04-26T01:54:24.958Z,13.87
2018-04-26T01:55:24.969Z,13.88
2018-04-26T01:56:24.974Z,13.75
2018-04-26T01:57:24.982Z,13.81
2018-04-26T01:58:25.000Z,13.84
2018-04-26T01:59:25.046Z,13.76
2018-04-26T02:00:25.027Z,13.83
2018-04-26T02:01:25.037Z,13.79
2018-04-26T02:02:25.038Z,13.79
2018-04-26T02:03:25.049Z,13.75
2018-04-26T02:04:25.057Z,13.79
2018-04-26T02:05:25.056Z,13.72
2018-04-26T02:06:25.069Z,13.75
2018-04-26T02:07:25.075Z,13.73
2018-04-26T02:08:25.097Z,13.75
2018-04-26T02:09:25.097Z,13.76
2018-04-26T02:10:25.129Z,13.73
2018-04-26T02:11:25.111Z,13.71
2018-04-26T02:12:25.118Z,13.79
2018-04-26T02:13:25.130Z,13.75
2018-04-26T02:14:25.136Z,13.72
2018-04-26T02:15:25.164Z,13.75
2018-04-26T02:16:25.151Z,13.76
2018-04-26T02:17:25.158Z,13.73
2018-04-26T02:18:25.170Z,13.76
2018-04-26T02:19:25.181Z,13.79
2018-04-26T02:20:25.202Z,13.66
2018-04-26T02:21:25.204Z,13.71
2018-04-26T02:22:25.212Z,13.68
2018-04-26T02:23:25.228Z,13.71
2018-04-26T02:24:25.229Z,13.76
2018-04-26T02:25:25.244Z,13.73
2018-04-26T02:26:25.242Z,13.73
2018-04-26T02:27:25.250Z,13.72
2018-04-26T02:28:25.261Z,13.72
2018-04-26T02:29:25.265Z,13.66
2018-04-26T02:30:25.281Z,13.63
2018-04-26T02:31:25.287Z,13.69
2018-04-26T02:32:25.293Z,13.71
2018-04-26T02:33:25.306Z,13.65
2018-04-26T02:34:25.314Z,13.62
2018-04-26T02:35:25.333Z,13.59
2018-04-26T02:36:25.343Z,13.57
2018-04-26T02:37:25.343Z,13.61
2018-04-26T02:38:25.349Z,13.66
2018-04-26T02:39:25.358Z,13.73
2018-04-26T02:40:25.365Z,13.75
2018-04-26T02:41:25.382Z,13.76
2018-04-26T02:42:25.384Z,13.66
2018-04-26T02:43:25.398Z,13.68
2018-04-26T02:44:25.428Z,13.68
2018-04-26T02:45:25.409Z,13.63
2018-04-26T02:46:25.420Z,13.62
2018-04-26T02:47:25.428Z,13.57
2018-04-26T02:48:25.436Z,13.59
2018-04-26T02:49:25.484Z,13.63
2018-04-26T02:50:25.460Z,13.53
2018-04-26T02:51:25.487Z,13.54
2018-04-26T02:52:25.472Z,13.57
2018-04-26T02:53:25.479Z,13.46
2018-04-26T02:54:25.490Z,13.44
2018-04-26T02:55:25.503Z,13.46
2018-04-26T02:56:25.506Z,13.47
2018-04-26T02:57:25.519Z,13.43
2018-04-26T02:58:25.538Z,13.47
2018-04-26T02:59:25.544Z,13.48
2018-04-26T03:00:25.552Z,13.41
2018-04-26T03:01:25.648Z,13.31
2018-04-26T03:02:25.567Z,13.39
2018-04-26T03:03:25.572Z,13.28
2018-04-26T03:04:25.587Z,13.28
2018-04-26T03:05:25.591Z,13.35
2018-04-26T03:06:25.596Z,13.22
2018-04-26T03:07:25.610Z,13.24
2018-04-26T03:08:25.850Z,13.17
2018-04-26T03:09:25.665Z,13.17
2018-04-26T03:10:25.632Z,13.21
2018-04-26T03:11:25.637Z,13.16
2018-04-26T03:12:25.653Z,13.16
2018-04-26T03:13:25.658Z,13.17
2018-04-26T03:14:25.677Z,13.17
2018-04-26T03:15:25.675Z,13.16
2018-04-26T03:16:25.686Z,13.07
2018-04-26T03:17:25.699Z,13.09
2018-04-26T03:18:25.701Z,13.06
2018-04-26T03:19:25.709Z,13.07
2018-04-26T03:20:25.720Z,13.06
2018-04-26T03:21:25.727Z,13.06
2018-04-26T03:22:25.746Z,13.09
2018-04-26T03:23:25.741Z,13.16
2018-04-26T03:24:25.756Z,13.01
2018-04-26T03:25:25.768Z,13.03
2018-04-26T03:26:25.772Z,12.98
2018-04-26T03:27:25.779Z,13.04
2018-04-26T03:28:25.785Z,13.03
2018-04-26T03:29:25.793Z,12.89
2018-04-26T03:30:25.799Z,12.88
2018-04-26T03:31:25.807Z,12.95
2018-04-26T03:32:25.816Z,12.87
2018-04-26T03:33:25.826Z,12.89
2018-04-26T03:34:25.835Z,12.73
2018-04-26T03:35:25.839Z,12.77
2018-04-26T03:36:25.858Z,12.73
2018-04-26T03:37:25.893Z,12.71
2018-04-26T03:38:25.897Z,12.74
2018-04-26T03:39:25.886Z,12.69
2018-04-26T03:40:25.892Z,12.61
2018-04-26T03:41:25.906Z,12.66
2018-04-26T03:42:25.925Z,12.62
2018-04-26T03:43:25.913Z,12.61
2018-04-26T03:44:25.922Z,12.61
2018-04-26T03:45:25.935Z,12.62
2018-04-26T03:46:25.937Z,12.59
2018-04-26T03:47:25.945Z,12.66
2018-04-26T03:48:25.953Z,12.52
2018-04-26T03:49:25.974Z,12.56
2018-04-26T03:50:25.969Z,12.69
2018-04-26T03:51:25.983Z,12.62
2018-04-26T03:52:26.008Z,12.58
2018-04-26T03:53:25.995Z,12.46
2018-04-26T03:54:26.011Z,12.49
2018-04-26T03:55:26.011Z,12.37
2018-04-26T03:56:26.015Z,12.40
2018-04-26T03:57:26.027Z,12.34
2018-04-26T03:58:26.044Z,12.33
2018-04-26T03:59:26.040Z,12.34
2018-04-26T04:00:26.065Z,12.44
2018-04-26T04:01:26.068Z,12.33
2018-04-26T04:02:26.075Z,12.37
2018-04-26T04:03:26.078Z,12.31
2018-04-26T04:04:26.086Z,12.38
2018-04-26T04:05:26.093Z,12.36
2018-04-26T04:06:26.103Z,12.36
2018-04-26T04:07:26.111Z,12.37
2018-04-26T04:08:26.126Z,12.40
2018-04-26T04:09:26.131Z,12.37
2018-04-26T04:10:26.130Z,12.43
2018-04-26T04:11:26.141Z,12.40
2018-04-26T04:12:26.153Z,12.36
2018-04-26T04:13:26.162Z,12.34
2018-04-26T04:14:26.184Z,12.38
2018-04-26T04:15:26.187Z,12.34
2018-04-26T04:16:26.178Z,12.38
2018-04-26T04:17:26.203Z,12.36
2018-04-26T04:18:26.209Z,12.36
2018-04-26T04:19:26.214Z,12.34
2018-04-26T04:20:26.223Z,12.37
2018-04-26T04:21:26.232Z,12.36
2018-04-26T04:22:26.245Z,12.37
2018-04-26T04:23:26.243Z,12.29
2018-04-26T04:24:26.252Z,12.31
2018-04-26T04:25:26.261Z,12.26
2018-04-26T04:26:26.263Z,12.31
2018-04-26T04:27:26.270Z,12.19
2018-04-26T04:28:26.278Z,12.23
2018-04-26T04:29:26.288Z,12.22
2018-04-26T04:30:26.293Z,12.23
2018-04-26T04:31:26.303Z,12.31
2018-04-26T04:32:26.323Z,12.22
2018-04-26T04:33:26.315Z,12.25
2018-04-26T04:34:26.327Z,12.23
2018-04-26T04:35:26.331Z,12.30
2018-04-26T04:36:26.335Z,12.26
2018-04-26T04:37:26.356Z,12.26
2018-04-26T04:38:26.358Z,12.16
2018-04-26T04:39:26.368Z,12.18
2018-04-26T04:40:26.368Z,12.11
2018-04-26T04:41:26.379Z,12.23
2018-04-26T04:42:26.385Z,12.23
2018-04-26T04:43:26.397Z,12.21
2018-04-26T04:44:26.399Z,12.13
2018-04-26T04:45:26.413Z,12.12
2018-04-26T04:46:26.417Z,12.22
2018-04-26T04:47:26.423Z,12.12
2018-04-26T04:48:26.433Z,12.11
2018-04-26T04:49:26.436Z,12.15
2018-04-26T04:50:26.449Z,12.15
2018-04-26T04:51:26.477Z,12.11
2018-04-26T04:52:26.482Z,12.11
2018-04-26T04:53:26.485Z,12.12
2018-04-26T04:54:26.492Z,12.08
2018-04-26T04:55:26.507Z,12.08
2018-04-26T04:56:26.517Z,12.11
2018-04-26T04:57:26.515Z,12.08
2018-04-26T04:58:26.521Z,12.03
2018-04-26T04:59:26.529Z,12.07
2018-04-26T05:00:26.532Z,12.00
2018-04-26T05:01:26.543Z,12.05
2018-04-26T05:02:26.544Z,12.07
2018-04-26T05:03:26.556Z,12.03
2018-04-26T05:04:26.561Z,12.07
2018-04-26T05:05:26.567Z,12.04
2018-04-26T05:06:26.613Z,12.07
2018-04-26T05:07:26.654Z,12.08
2018-04-26T05:08:26.588Z,12.08
2018-04-26T05:09:26.601Z,12.12
2018-04-26T05:10:26.627Z,12.05
2018-04-26T05:11:26.615Z,12.04
2018-04-26T05:12:26.620Z,12.11
2018-04-26T05:13:26.635Z,12.12
2018-04-26T05:14:26.639Z,12.25
2018-04-26T05:15:26.643Z,12.33
2018-04-26T05:16:26.648Z,12.43
2018-04-26T05:17:26.655Z,12.43
2018-04-26T05:18:26.691Z,12.41
2018-04-26T05:19:26.676Z,12.55
2018-04-26T05:20:26.676Z,12.56
2018-04-26T05:21:26.696Z,12.46
2018-04-26T05:22:26.703Z,12.38
2018-04-26T05:23:26.709Z,12.49
2018-04-26T05:24:26.725Z,12.62
2018-04-26T05:25:26.722Z,12.58
2018-04-26T05:26:26.727Z,12.55
2018-04-26T05:27:26.742Z,12.63
2018-04-26T05:28:26.739Z,12.63
2018-04-26T05:29:26.755Z,12.55
2018-04-26T05:30:26.761Z,12.54
2018-04-26T05:31:26.766Z,12.61
2018-04-26T05:32:26.771Z,12.61
2018-04-26T05:33:26.782Z,12.55
2018-04-26T05:34:26.787Z,12.55
2018-04-26T05:35:26.813Z,12.67
2018-04-26T05:36:26.805Z,12.61
2018-04-26T05:37:26.809Z,12.66
2018-04-26T05:38:26.838Z,12.63
2018-04-26T05:39:26.833Z,12.67
2018-04-26T05:40:26.833Z,12.56
2018-04-26T05:41:26.876Z,12.66
2018-04-26T05:42:26.848Z,12.66
2018-04-26T05:43:26.869Z,12.62
2018-04-26T05:44:26.876Z,12.70
2018-04-26T05:45:26.885Z,12.56
2018-04-26T05:46:26.894Z,12.69
2018-04-26T05:47:26.927Z,12.59
2018-04-26T05:48:26.912Z,12.63
2018-04-26T05:49:26.931Z,12.61
2018-04-26T05:50:26.935Z,12.67
2018-04-26T05:51:26.938Z,12.62
2018-04-26T05:52:26.931Z,12.58
2018-04-26T05:53:26.936Z,12.52
2018-04-26T05:54:26.940Z,12.46
2018-04-26T05:55:26.951Z,12.54
2018-04-26T05:56:26.957Z,12.55
2018-04-26T05:57:26.969Z,12.55
2018-04-26T05:58:26.980Z,12.55
2018-04-26T05:59:26.985Z,12.61
2018-04-26T06:00:26.994Z,12.59
2018-04-26T06:01:27.004Z,12.62
2018-04-26T06:02:27.017Z,12.67
2018-04-26T06:03:27.083Z,12.67
2018-04-26T06:04:27.064Z,12.62
2018-04-26T06:05:27.034Z,12.59
2018-04-26T06:06:27.038Z,12.61
2018-04-26T06:07:27.045Z,12.62
2018-04-26T06:08:27.056Z,12.63
2018-04-26T06:09:27.063Z,12.59
2018-04-26T06:10:27.075Z,12.54
2018-04-26T06:11:27.075Z,12.56
2018-04-26T06:12:27.082Z,12.51
2018-04-26T06:13:27.088Z,12.70
2018-04-26T06:14:27.097Z,12.66
2018-04-26T06:15:27.126Z,12.69
2018-04-26T06:16:27.117Z,12.59
2018-04-26T06:17:27.123Z,12.52
2018-04-26T06:18:27.132Z,12.61
2018-04-26T06:19:27.194Z,12.54
2018-04-26T06:20:27.146Z,12.59
2018-04-26T06:21:27.157Z,12.46
2018-04-26T06:22:27.159Z,12.43
2018-04-26T06:23:27.165Z,12.56
2018-04-26T06:24:27.180Z,12.59
2018-04-26T06:25:27.185Z,12.67
2018-04-26T06:26:27.196Z,12.62
2018-04-26T06:27:27.199Z,12.55
2018-04-26T06:28:27.228Z,12.52
2018-04-26T06:29:27.213Z,12.59
2018-04-26T06:30:27.224Z,12.66
2018-04-26T06:31:27.234Z,12.58
2018-04-26T06:32:27.236Z,12.67
2018-04-26T06:33:27.246Z,12.62
2018-04-26T06:34:27.269Z,12.61
2018-04-26T06:35:27.260Z,12.63
2018-04-26T06:36:27.292Z,12.61
2018-04-26T06:37:27.278Z,12.63
2018-04-26T06:38:27.297Z,12.66
2018-04-26T06:39:27.289Z,12.62
2018-04-26T06:40:27.300Z,12.67
2018-04-26T06:41:27.326Z,12.63
2018-04-26T06:42:27.404Z,12.62
2018-04-26T06:43:27.339Z,12.66
2018-04-26T06:44:27.341Z,12.77
2018-04-26T06:45:27.394Z,12.71
2018-04-26T06:46:27.368Z,12.67
2018-04-26T06:47:27.369Z,12.77
2018-04-26T06:48:27.376Z,12.69
2018-04-26T06:49:27.381Z,12.76
2018-04-26T06:50:27.393Z,12.76
2018-04-26T06:51:27.405Z,12.88
2018-04-26T06:52:27.402Z,12.77
2018-04-26T06:53:27.437Z,12.70
2018-04-26T06:54:27.412Z,12.74
2018-04-26T06:55:27.418Z,12.70
2018-04-26T06:56:27.434Z,12.80
2018-04-26T06:57:27.435Z,12.70
2018-04-26T06:58:27.449Z,12.77
2018-04-26T06:59:27.449Z,12.70
2018-04-26T07:00:27.544Z,12.71
2018-04-26T07:01:27.471Z,12.77
2018-04-26T07:02:27.493Z,12.89
2018-04-26T07:03:27.497Z,12.67
2018-04-26T07:04:27.503Z,12.59
2018-04-26T07:05:27.509Z,12.62
2018-04-26T07:06:27.519Z,12.44
2018-04-26T07:07:27.515Z,12.38
2018-04-26T07:08:27.529Z,12.54
2018-04-26T07:09:27.537Z,12.56
2018-04-26T07:10:27.544Z,12.56
2018-04-26T07:11:27.551Z,12.52
2018-04-26T07:12:27.554Z,12.48
2018-04-26T07:13:27.561Z,12.56
2018-04-26T07:14:27.577Z,12.61
2018-04-26T07:15:27.576Z,12.69
2018-04-26T07:16:27.595Z,12.66
2018-04-26T07:17:27.595Z,12.76
2018-04-26T07:18:27.600Z,12.84
2018-04-26T07:19:27.624Z,12.89
2018-04-26T07:20:27.721Z,12.91
2018-04-26T07:21:27.630Z,13.14
2018-04-26T07:22:27.645Z,13.21
2018-04-26T07:23:27.642Z,13.36
2018-04-26T07:24:27.648Z,13.43
2018-04-26T07:25:27.657Z,13.65
2018-04-26T07:26:27.667Z,13.65
2018-04-26T07:27:27.671Z,13.86
2018-04-26T07:28:27.677Z,13.72
2018-04-26T07:29:27.702Z,13.90
2018-04-26T07:30:27.701Z,13.96
2018-04-26T07:31:27.708Z,13.93
2018-04-26T07:32:27.714Z,13.79
2018-04-26T07:33:27.730Z,13.75
2018-04-26T07:34:27.738Z,13.79
2018-04-26T07:35:27.740Z,13.46
2018-04-26T07:36:27.754Z,13.36
2018-04-26T07:37:27.757Z,13.12
2018-04-26T07:38:27.772Z,13.14
2018-04-26T07:39:27.775Z,13.16
2018-04-26T07:40:27.787Z,13.29
2018-04-26T07:41:27.805Z,13.06
2018-04-26T07:42:27.801Z,13.17
2018-04-26T07:43:27.867Z,13.17
2018-04-26T07:44:27.819Z,13.04
2018-04-26T07:45:27.828Z,13.22
2018-04-26T07:46:27.847Z,13.32
2018-04-26T07:47:27.846Z,13.47
2018-04-26T07:48:27.850Z,13.43
2018-04-26T07:49:27.868Z,13.46
2018-04-26T07:50:27.895Z,13.46
2018-04-26T07:51:27.883Z,13.55
2018-04-26T07:52:27.887Z,13.47
2018-04-26T07:53:27.894Z,13.43
2018-04-26T07:54:27.901Z,13.63
2018-04-26T07:55:27.910Z,13.80
2018-04-26T07:56:27.939Z,13.91
2018-04-26T07:57:27.929Z,13.81
2018-04-26T07:58:27.936Z,13.83
2018-04-26T07:59:27.951Z,13.83
2018-04-26T08:00:27.958Z,13.79
2018-04-26T08:01:28.037Z,13.72
2018-04-26T08:02:27.976Z,13.61
2018-04-26T08:03:27.980Z,13.50
2018-04-26T08:04:27.991Z,13.75
2018-04-26T08:05:28.006Z,13.71
2018-04-26T08:06:28.019Z,13.54
2018-04-26T08:07:28.013Z,13.73
2018-04-26T08:08:28.019Z,13.86
2018-04-26T08:09:28.035Z,13.83
2018-04-26T08:10:28.054Z,13.99
2018-04-26T08:11:28.088Z,13.84
2018-04-26T08:12:28.055Z,13.79
2018-04-26T08:13:28.080Z,13.59
2018-04-26T08:14:28.091Z,13.32
2018-04-26T08:15:28.081Z,13.32
2018-04-26T08:16:28.105Z,13.17
2018-04-26T08:17:28.108Z,13.24
2018-04-26T08:18:28.111Z,13.19
2018-04-26T08:19:28.147Z,13.29
2018-04-26T08:20:28.135Z,13.44
2018-04-26T08:21:28.155Z,13.29
2018-04-26T08:22:28.177Z,13.24
2018-04-26T08:23:28.176Z,13.13
2018-04-26T08:24:28.170Z,13.13
2018-04-26T08:25:28.187Z,13.09
2018-04-26T08:26:28.204Z,13.09
2018-04-26T08:27:28.209Z,13.04
2018-04-26T08:28:28.205Z,13.14
2018-04-26T08:29:28.248Z,13.16
2018-04-26T08:30:28.261Z,13.28
2018-04-26T08:31:28.220Z,13.32
2018-04-26T08:32:28.224Z,13.46
2018-04-26T08:33:28.246Z,13.43
2018-04-26T08:34:28.264Z,13.32
2018-04-26T08:35:28.251Z,13.27
2018-04-26T08:36:28.262Z,13.32
2018-04-26T08:37:28.274Z,13.38
2018-04-26T08:38:28.282Z,13.38
2018-04-26T08:39:28.290Z,13.35
2018-04-26T08:40:28.292Z,13.28
2018-04-26T08:41:28.301Z,13.53
2018-04-26T08:42:28.311Z,13.83
2018-04-26T08:43:28.321Z,13.79
2018-04-26T08:44:28.322Z,13.72
2018-04-26T08:45:28.343Z,13.65
2018-04-26T08:46:28.349Z,13.65
2018-04-26T08:47:28.353Z,13.57
2018-04-26T08:48:28.361Z,13.66
2018-04-26T08:49:28.364Z,13.63
2018-04-26T08:50:28.376Z,13.48
2018-04-26T08:51:28.383Z,13.51
2018-04-26T08:52:28.445Z,13.63
2018-04-26T08:53:28.408Z,13.53
2018-04-26T08:54:28.407Z,13.36
2018-04-26T08:55:28.415Z,13.31
2018-04-26T08:56:28.431Z,13.48
2018-04-26T08:57:28.435Z,13.44
2018-04-26T08:58:28.449Z,13.43
2018-04-26T08:59:28.452Z,13.31
2018-04-26T09:00:28.468Z,13.32
2018-04-26T09:01:28.484Z,13.29
2018-04-26T09:02:28.473Z,13.36
2018-04-26T09:03:28.483Z,13.41
2018-04-26T09:04:28.495Z,13.46
2018-04-26T09:05:28.506Z,13.43
2018-04-26T09:06:28.513Z,13.38
2018-04-26T09:07:28.522Z,13.57
2018-04-26T09:08:28.523Z,13.65
2018-04-26T09:09:28.547Z,13.71
2018-04-26T09:10:28.538Z,13.96
2018-04-26T09:11:28.550Z,14.12
2018-04-26T09:12:28.553Z,14.31
2018-04-26T09:13:28.564Z,14.48
2018-04-26T09:14:28.575Z,14.29
2018-04-26T09:15:28.584Z,14.34
2018-04-26T09:16:28.589Z,14.48
2018-04-26T09:17:28.597Z,14.54
2018-04-26T09:18:28.606Z,14.60
2018-04-26T09:19:28.619Z,14.86
2018-04-26T09:20:28.623Z,15.00
2018-04-26T09:21:28.632Z,14.85
2018-04-26T09:22:28.646Z,14.46
2018-04-26T09:23:28.649Z,14.45
2018-04-26T09:24:28.667Z,14.38
2018-04-26T09:25:28.666Z,14.30
2018-04-26T09:26:28.679Z,14.26
2018-04-26T09:27:28.698Z,14.09
2018-04-26T09:28:28.703Z,14.04
2018-04-26T09:29:28.701Z,13.94
2018-04-26T09:30:28.739Z,13.91
2018-04-26T09:31:28.722Z,13.94
2018-04-26T09:32:28.747Z,13.98
2018-04-26T09:33:28.749Z,14.02
2018-04-26T09:34:28.749Z,13.99
2018-04-26T09:35:28.768Z,13.93
2018-04-26T09:36:28.764Z,13.98
2018-04-26T09:37:28.775Z,14.17
2018-04-26T09:38:28.786Z,14.35
2018-04-26T09:39:28.795Z,14.30
2018-04-26T09:40:28.809Z,14.26
2018-04-26T09:41:28.809Z,14.21
2018-04-26T09:42:28.822Z,14.19
2018-04-26T09:43:28.829Z,14.38
2018-04-26T09:44:28.838Z,14.38
2018-04-26T09:45:28.846Z,14.21
2018-04-26T09:46:28.855Z,14.23
2018-04-26T09:47:28.866Z,14.20
2018-04-26T09:48:28.874Z,14.34
2018-04-26T09:49:28.891Z,14.38
2018-04-26T09:50:28.897Z,14.34
2018-04-26T09:51:28.900Z,14.30
2018-04-26T09:52:28.912Z,14.39
2018-04-26T09:53:28.923Z,14.38
2018-04-26T09:54:28.931Z,14.38
2018-04-26T09:55:29.024Z,14.34
2018-04-26T09:56:28.947Z,14.39
2018-04-26T09:57:28.956Z,14.44
2018-04-26T09:58:28.975Z,14.42
2018-04-26T09:59:28.976Z,14.20
2018-04-26T10:00:28.987Z,14.38
2018-04-26T10:01:29.012Z,14.54
2018-04-26T10:02:29.006Z,14.49
2018-04-26T10:03:29.013Z,14.54
2018-04-26T10:04:29.027Z,14.48
2018-04-26T10:05:29.038Z,14.42
2018-04-26T10:06:29.049Z,14.60
2018-04-26T10:07:29.052Z,14.74
2018-04-26T10:08:29.059Z,14.74
2018-04-26T10:09:29.072Z,14.54
2018-04-26T10:10:29.085Z,14.44
2018-04-26T10:11:29.092Z,14.42
2018-04-26T10:12:29.097Z,14.45
2018-04-26T10:13:29.110Z,14.56
2018-04-26T10:14:29.119Z,14.78
2018-04-26T10:15:29.123Z,14.69
2018-04-26T10:16:29.130Z,14.59
2018-04-26T10:17:29.154Z,14.53
2018-04-26T10:18:29.163Z,14.30
2018-04-26T10:19:29.164Z,14.20
2018-04-26T10:20:29.170Z,14.02
2018-04-26T10:21:29.186Z,14.17
2018-04-26T10:22:29.198Z,14.41
2018-04-26T10:23:29.199Z,14.69
2018-04-26T10:24:29.211Z,14.75
2018-04-26T10:25:29.225Z,14.85
2018-04-26T10:26:29.234Z,14.93
2018-04-26T10:27:29.247Z,14.91
2018-04-26T10:28:29.244Z,14.83
2018-04-26T10:29:29.269Z,14.72
2018-04-26T10:30:29.262Z,14.93
2018-04-26T10:31:29.276Z,15.19
2018-04-26T10:32:29.289Z,15.52
2018-04-26T10:33:29.302Z,15.64
2018-04-26T10:34:29.302Z,15.85
2018-04-26T10:35:29.369Z,15.93
2018-04-26T10:36:29.325Z,16.33
2018-04-26T10:37:29.333Z,16.37
2018-04-26T10:38:29.347Z,16.06
2018-04-26T10:39:29.350Z,16.01
2018-04-26T10:40:29.372Z,16.03
2018-04-26T10:41:29.374Z,15.93
2018-04-26T10:42:29.407Z,16.10
2018-04-26T10:43:29.393Z,16.25
2018-04-26T10:44:29.408Z,16.32
2018-04-26T10:45:29.421Z,16.37
2018-04-26T10:46:29.427Z,16.40
2018-04-26T10:47:29.434Z,16.44
2018-04-26T10:48:29.454Z,16.41
2018-04-26T10:49:29.455Z,16.62
2018-04-26T10:50:29.469Z,16.62
2018-04-26T10:51:29.488Z,16.41
2018-04-26T10:52:29.492Z,16.17
2018-04-26T10:53:29.497Z,16.17
2018-04-26T10:54:29.515Z,15.95
2018-04-26T10:55:29.525Z,15.85
2018-04-26T10:56:29.535Z,15.78
2018-04-26T10:57:29.541Z,15.70
2018-04-26T10:58:29.554Z,15.58
2018-04-26T10:59:29.566Z,15.53
2018-04-26T11:00:29.582Z,15.53
2018-04-26T11:01:29.586Z,15.46
2018-04-26T11:02:29.594Z,15.22
2018-04-26T11:03:29.608Z,15.22
2018-04-26T11:04:29.643Z,15.13
2018-04-26T11:05:29.639Z,14.97
2018-04-26T11:06:29.642Z,15.04
2018-04-26T11:07:29.661Z,15.30
2018-04-26T11:08:29.665Z,15.52
2018-04-26T11:09:29.679Z,15.58
2018-04-26T11:10:29.685Z,15.52
2018-04-26T11:11:29.698Z,15.78
2018-04-26T11:12:29.731Z,16.18
2018-04-26T11:13:29.726Z,16.36
2018-04-26T11:14:29.735Z,16.51
2018-04-26T11:15:29.790Z,16.60
2018-04-26T11:16:29.760Z,16.78
2018-04-26T11:17:29.771Z,17.27
2018-04-26T11:18:29.781Z,17.33
2018-04-26T11:19:29.854Z,17.15
2018-04-26T11:20:29.807Z,17.07
2018-04-26T11:21:29.820Z,17.03
2018-04-26T11:22:29.827Z,17.05
2018-04-26T11:23:29.842Z,16.78
2018-04-26T11:24:29.931Z,16.80
2018-04-26T11:25:29.870Z,16.69
2018-04-26T11:26:29.883Z,16.50
2018-04-26T11:27:29.899Z,16.70
2018-04-26T11:28:29.914Z,16.81
2018-04-26T11:29:29.982Z,16.82
2018-04-26T11:30:29.934Z,17.07
2018-04-26T11:31:29.945Z,17.20
2018-04-26T11:32:29.961Z,17.30
2018-04-26T11:33:29.978Z,17.81
2018-04-26T11:34:29.993Z,18.29
2018-04-26T11:35:30.004Z,18.29
2018-04-26T11:36:30.010Z,18.74
2018-04-26T11:37:30.024Z,19.10
2018-04-26T11:38:30.048Z,19.64
2018-04-26T11:39:30.068Z,19.61
2018-04-26T11:40:30.073Z,19.40
2018-04-26T11:41:30.097Z,19.53
2018-04-26T11:42:30.105Z,19.71
2018-04-26T11:43:30.123Z,19.76
2018-04-26T11:44:30.150Z,20.05
2018-04-26T11:45:30.166Z,20.56
2018-04-26T11:46:30.181Z,20.60
2018-04-26T11:47:30.202Z,20.42
2018-04-26T11:48:30.222Z,20.20
2018-04-26T11:49:30.239Z,20.38
2018-04-26T11:50:30.271Z,20.41
2018-04-26T11:51:30.291Z,19.79
2018-04-26T11:52:30.386Z,19.80
2018-04-26T11:53:30.321Z,19.85
2018-04-26T11:54:30.355Z,20.37
2018-04-26T11:55:30.374Z,20.60
2018-04-26T11:56:30.392Z,20.71
2018-04-26T11:57:30.417Z,20.33
2018-04-26T11:58:30.433Z,19.31
2018-04-26T11:59:30.452Z,18.94
2018-04-26T12:00:30.482Z,18.38
2018-04-26T12:01:30.496Z,19.01
2018-04-26T12:02:30.539Z,19.52
2018-04-26T12:03:30.539Z,19.30
2018-04-26T12:04:30.557Z,18.91
2018-04-26T12:05:30.577Z,19.38
2018-04-26T12:06:30.599Z,19.89
2018-04-26T12:07:30.619Z,20.05
2018-04-26T12:08:30.645Z,20.56
2018-04-26T12:09:30.657Z,20.64
2018-04-26T12:10:30.694Z,21.46
2018-04-26T12:11:30.702Z,21.49
2018-04-26T12:12:30.728Z,21.61
2018-04-26T12:13:30.760Z,21.81
2018-04-26T12:14:30.771Z,22.01
2018-04-26T12:15:30.804Z,21.79
2018-04-26T12:16:30.825Z,21.24
2018-04-26T12:17:30.841Z,20.48
2018-04-26T12:18:30.906Z,20.37
2018-04-26T12:19:30.888Z,21.03
2018-04-26T12:20:30.919Z,21.46
2018-04-26T12:21:30.940Z,21.37
2018-04-26T12:22:30.986Z,21.05
2018-04-26T12:23:30.985Z,20.40
2018-04-26T12:24:31.007Z,20.07
2018-04-26T12:25:31.034Z,19.92
2018-04-26T12:26:31.053Z,20.08
2018-04-26T12:27:31.088Z,20.07
2018-04-26T12:28:31.092Z,19.31
2018-04-26T12:29:31.119Z,18.51
2018-04-26T12:30:31.136Z,18.31
2018-04-26T12:31:31.159Z,18.50
2018-04-26T12:32:31.177Z,18.57
2018-04-26T12:33:31.201Z,18.83
2018-04-26T12:34:31.216Z,18.59
2018-04-26T12:35:31.274Z,18.54
2018-04-26T12:36:31.260Z,18.82
2018-04-26T12:37:31.282Z,19.57
2018-04-26T12:38:31.297Z,19.32
2018-04-26T12:39:31.330Z,18.69
2018-04-26T12:40:31.344Z,18.46
2018-04-26T12:41:31.360Z,18.54
2018-04-26T12:42:31.492Z,19.13
2018-04-26T12:43:31.401Z,20.13
2018-04-26T12:44:31.428Z,19.95
2018-04-26T12:45:31.443Z,19.60
2018-04-26T12:46:31.458Z,19.21
2018-04-26T12:47:31.486Z,19.02
2018-04-26T12:48:31.502Z,18.49
2018-04-26T12:49:31.515Z,17.99
2018-04-26T12:50:31.531Z,18.02
2018-04-26T12:51:31.552Z,18.02
2018-04-26T12:52:31.577Z,18.04